Time;durP1;ratioP1;P1;durP2;ratioP2;P2;SDS_P1;SDS_P2;PMS_P1;PMS_P2;Temp;Humidity;BMP_temperature;BMP_pressure;BME280_temperature;BME280_humidity;BME280_pressure;Samples;Min_cycle;Max_cycle;Signal;HPM_P1;HPM_P2
2022/12/31 00:00:53;;;;;;;4.30;1.20;;;16.40;99.90;;;;;;5079068;28;20047;-73
2022/12/31 00:03:19;;;;;;;3.30;0.90;;;16.40;99.90;;;;;;5069578;28;20036;-73
2022/12/31 00:05:45;;;;;;;4.13;1.10;;;16.50;99.90;;;;;;5066647;28;20443;-72
2022/12/31 00:08:10;;;;;;;4.90;1.17;;;16.40;99.90;;;;;;5055770;28;20041;-73
2022/12/31 00:10:40;;;;;;;3.58;1.08;;;16.30;99.90;;;;;;5052063;28;20048;-73
2022/12/31 00:13:09;;;;;;;3.95;1.02;;;16.40;99.90;;;;;;5070995;28;20826;-73
2022/12/31 00:15:36;;;;;;;5.22;1.17;;;16.40;99.90;;;;;;5066255;28;20032;-73
2022/12/31 00:18:01;;;;;;;7.03;1.23;;;16.40;99.90;;;;;;5056046;28;20032;-73
2022/12/31 00:20:27;;;;;;;2.92;1.60;;;16.40;99.90;;;;;;5073279;28;20426;-73
2022/12/31 00:22:53;;;;;;;5.72;1.70;;;16.50;99.90;;;;;;5081640;28;20028;-74
2022/12/31 00:25:20;;;;;;;2.55;1.02;;;16.50;99.90;;;;;;5082176;28;20093;-73
2022/12/31 00:27:47;;;;;;;3.42;1.05;;;16.50;99.90;;;;;;5075648;28;20056;-73
2022/12/31 00:30:13;;;;;;;5.82;1.20;;;16.50;99.90;;;;;;5076844;28;20085;-73
2022/12/31 00:32:39;;;;;;;3.22;1.05;;;16.50;99.90;;;;;;5079342;28;20163;-73
2022/12/31 00:35:05;;;;;;;6.03;1.23;;;16.50;99.90;;;;;;5075119;28;20041;-73
2022/12/31 00:37:33;;;;;;;3.28;0.82;;;16.50;99.90;;;;;;5078136;28;20032;-73
2022/12/31 00:39:59;;;;;;;5.95;1.20;;;16.40;99.90;;;;;;5062513;28;20040;-74
2022/12/31 00:42:26;;;;;;;4.20;1.25;;;16.40;99.90;;;;;;5067805;28;20036;-73
2022/12/31 00:44:52;;;;;;;4.22;1.17;;;16.40;99.90;;;;;;5075679;28;21015;-72
2022/12/31 00:47:18;;;;;;;4.32;1.20;;;16.30;99.90;;;;;;5094114;28;20036;-72
2022/12/31 00:49:44;;;;;;;3.80;1.00;;;16.30;99.90;;;;;;5084631;28;20109;-74
2022/12/31 00:52:12;;;;;;;3.08;1.10;;;16.30;99.90;;;;;;5068325;28;20079;-73
2022/12/31 00:54:38;;;;;;;4.30;1.05;;;16.30;99.90;;;;;;5081286;28;20040;-73
2022/12/31 00:57:05;;;;;;;5.78;1.20;;;16.30;99.90;;;;;;5065713;28;20029;-72
2022/12/31 00:59:31;;;;;;;6.68;1.10;;;16.40;99.90;;;;;;5074656;28;20048;-73
2022/12/31 01:01:57;;;;;;;4.13;1.00;;;16.30;99.90;;;;;;5071641;28;20032;-74
2022/12/31 01:04:23;;;;;;;5.57;1.20;;;16.30;99.90;;;;;;5075927;28;20046;-72
2022/12/31 01:06:49;;;;;;;6.45;1.40;;;16.20;99.90;;;;;;5075422;28;20044;-73
2022/12/31 01:09:17;;;;;;;4.35;1.17;;;16.20;99.90;;;;;;5075879;28;20036;-72
2022/12/31 01:11:43;;;;;;;3.00;1.10;;;16.00;99.90;;;;;;5079845;28;20024;-74
2022/12/31 01:14:14;;;;;;;5.35;1.60;;;16.00;99.90;;;;;;5075744;28;20028;-73
2022/12/31 01:16:46;;;;;;;4.72;1.23;;;16.00;99.90;;;;;;5085860;28;20029;-73
2022/12/31 01:19:26;;;;;;;5.90;1.25;;;16.00;99.90;;;;;;5079165;28;20036;-73
2022/12/31 01:21:52;;;;;;;3.63;0.90;;;16.00;99.90;;;;;;5072980;28;20039;-73
2022/12/31 01:24:18;;;;;;;7.40;1.23;;;16.20;99.90;;;;;;5076851;28;20037;-73
2022/12/31 01:26:45;;;;;;;5.65;1.40;;;16.30;99.90;;;;;;5079201;28;20078;-72
2022/12/31 01:29:11;;;;;;;;;;;16.40;99.90;;;;;;5079819;28;20629;-73
2022/12/31 01:31:38;;;;;;;4.60;0.80;;;16.50;99.90;;;;;;5053052;28;19923;-73
2022/12/31 01:34:04;;;;;;;6.30;0.80;;;16.50;99.90;;;;;;5055125;28;20068;-73
2022/12/31 01:36:31;;;;;;;4.53;0.98;;;16.60;99.90;;;;;;5075637;28;20092;-72
2022/12/31 01:38:59;;;;;;;3.72;0.85;;;16.60;99.90;;;;;;5081672;28;20032;-73
2022/12/31 01:41:28;;;;;;;3.60;0.77;;;16.60;99.90;;;;;;5073706;28;20053;-73
2022/12/31 01:43:58;;;;;;;5.00;1.10;;;16.80;99.90;;;;;;5079020;28;20059;-74
2022/12/31 01:46:41;;;;;;;5.38;0.90;;;16.80;99.60;;;;;;5076487;28;20538;-73
2022/12/31 01:49:33;;;;;;;4.93;0.63;;;16.90;99.40;;;;;;5074849;28;20076;-72
2022/12/31 01:52:09;;;;;;;4.13;1.73;;;17.00;99.20;;;;;;5078286;28;20023;-72
2022/12/31 01:54:41;;;;;;;3.10;0.73;;;16.90;99.20;;;;;;5077687;28;20020;-73
2022/12/31 01:57:08;;;;;;;3.20;0.85;;;16.90;99.20;;;;;;5078773;28;20028;-73
2022/12/31 01:59:34;;;;;;;5.82;0.88;;;16.90;99.10;;;;;;5078695;28;20043;-72
2022/12/31 02:02:00;;;;;;;2.42;0.80;;;16.80;99.20;;;;;;5081343;28;20028;-74
2022/12/31 02:04:28;;;;;;;3.40;0.60;;;16.80;99.30;;;;;;5083026;28;20024;-72
2022/12/31 02:07:03;;;;;;;5.22;1.10;;;16.70;99.40;;;;;;5052145;28;20036;-72
2022/12/31 02:09:31;;;;;;;4.35;0.95;;;16.80;99.20;;;;;;5071549;28;20128;-74
2022/12/31 02:11:57;;;;;;;4.75;1.17;;;16.70;99.30;;;;;;5081829;28;20025;-72
2022/12/31 02:14:49;;;;;;;3.05;0.98;;;16.70;99.20;;;;;;5080997;27;20650;-73
2022/12/31 02:17:27;;;;;;;4.53;1.13;;;16.70;99.40;;;;;;5051407;28;20116;-73
2022/12/31 02:20:13;;;;;;;3.88;0.60;;;16.50;99.50;;;;;;5071424;28;20109;-72
2022/12/31 02:23:04;;;;;;;2.65;0.90;;;16.60;99.40;;;;;;5059677;28;20044;-73
2022/12/31 02:25:49;;;;;;;3.28;0.77;;;16.60;99.40;;;;;;5080351;28;20044;-74
2022/12/31 02:28:21;;;;;;;3.33;0.88;;;16.40;99.50;;;;;;5077189;28;20143;-73
2022/12/31 02:30:57;;;;;;;3.15;1.10;;;16.50;99.40;;;;;;5079979;28;20084;-72
2022/12/31 02:33:34;;;;;;;3.70;0.82;;;16.50;99.50;;;;;;5077097;28;20132;-73
2022/12/31 02:36:06;;;;;;;5.63;1.02;;;16.50;99.50;;;;;;5065914;28;20048;-72
2022/12/31 02:38:39;;;;;;;4.38;0.93;;;16.50;99.50;;;;;;5078274;28;20059;-73
2022/12/31 02:41:48;;;;;;;3.90;0.80;;;16.60;99.30;;;;;;5084745;28;20028;-73
2022/12/31 02:43:59;;;;;;;4.38;0.80;;;16.60;99.30;;;;;;5067171;28;20152;-72
2022/12/31 02:47:09;;;;;;;6.05;0.85;;;16.50;99.40;;;;;;5061487;28;20396;-72
2022/12/31 02:49:51;;;;;;;3.58;0.77;;;16.50;99.50;;;;;;5059088;28;20045;-72
2022/12/31 02:52:35;;;;;;;5.18;0.82;;;16.50;99.40;;;;;;5078330;28;20194;-72
2022/12/31 02:55:15;;;;;;;4.05;0.80;;;16.60;99.30;;;;;;5071807;28;20053;-72
2022/12/31 02:58:04;;;;;;;3.40;1.20;;;16.50;99.30;;;;;;5063073;28;20093;-73
2022/12/31 03:03:19;;;;;;;3.60;0.90;;;16.70;99.10;;;;;;5077799;28;20120;-73
2022/12/31 03:05:48;;;;;;;4.45;0.80;;;16.60;99.10;;;;;;5076939;28;20044;-72
2022/12/31 03:08:22;;;;;;;4.35;0.98;;;16.70;99.00;;;;;;5074494;28;20053;-72
2022/12/31 03:10:49;;;;;;;4.07;0.85;;;16.60;98.90;;;;;;5081629;28;20496;-72
2022/12/31 03:13:15;;;;;;;3.17;1.13;;;16.60;98.80;;;;;;5051907;28;20063;-73
2022/12/31 03:15:42;;;;;;;2.42;0.70;;;16.60;98.70;;;;;;5080084;28;20131;-72
2022/12/31 03:18:12;;;;;;;4.35;0.88;;;16.60;98.60;;;;;;5081952;28;20081;-73
2022/12/31 03:23:29;;;;;;;4.43;1.08;;;16.70;98.50;;;;;;5077732;28;20067;-72
2022/12/31 03:25:56;;;;;;;5.88;1.10;;;16.70;98.60;;;;;;5080697;28;20032;-72
2022/12/31 03:28:25;;;;;;;4.55;0.98;;;16.70;98.40;;;;;;5092620;28;22560;-72
2022/12/31 03:30:59;;;;;;;6.60;0.85;;;16.70;98.40;;;;;;5080440;28;20044;-72
2022/12/31 03:33:30;;;;;;;4.40;1.00;;;16.70;98.40;;;;;;5080497;28;20037;-72
2022/12/31 03:35:57;;;;;;;5.47;1.00;;;16.70;98.30;;;;;;5090047;28;20043;-72
2022/12/31 03:38:23;;;;;;;3.35;0.70;;;16.70;98.30;;;;;;5081727;28;20368;-73
2022/12/31 03:40:51;;;;;;;3.78;1.15;;;16.70;98.30;;;;;;5089830;28;20040;-73
2022/12/31 03:43:18;;;;;;;3.72;0.90;;;16.70;98.40;;;;;;5076721;28;20494;-73
2022/12/31 03:45:51;;;;;;;3.78;0.80;;;16.70;98.40;;;;;;5073746;28;20070;-72
2022/12/31 03:48:20;;;;;;;4.53;1.00;;;16.80;98.10;;;;;;5079804;28;20044;-73
2022/12/31 03:50:46;;;;;;;4.55;1.10;;;16.80;98.10;;;;;;5081848;28;20479;-73
2022/12/31 03:53:12;;;;;;;3.90;0.70;;;16.80;97.90;;;;;;5079847;28;20097;-71
2022/12/31 03:55:38;;;;;;;4.88;0.98;;;16.80;97.80;;;;;;5084527;28;20040;-73
2022/12/31 03:58:04;;;;;;;5.05;0.98;;;16.90;97.70;;;;;;5080493;28;20483;-73
2022/12/31 04:00:30;;;;;;;7.25;1.23;;;16.90;97.60;;;;;;5084808;28;20127;-72
2022/12/31 04:02:56;;;;;;;5.80;1.42;;;16.90;97.60;;;;;;5068876;28;20037;-73
2022/12/31 04:05:22;;;;;;;3.05;0.93;;;16.70;97.90;;;;;;5078755;28;20379;-73
2022/12/31 04:07:50;;;;;;;5.63;0.80;;;16.70;97.80;;;;;;5054637;28;20051;-72
2022/12/31 04:10:18;;;;;;;2.45;0.70;;;16.70;97.80;;;;;;5075144;28;20063;-72
2022/12/31 04:12:44;;;;;;;2.78;1.00;;;16.70;97.80;;;;;;5075330;28;20140;-73
2022/12/31 04:15:15;;;;;;;3.05;0.93;;;16.60;98.00;;;;;;5067096;28;20044;-72
2022/12/31 04:17:41;;;;;;;2.80;1.00;;;16.50;98.10;;;;;;5077938;28;20052;-73
2022/12/31 04:20:07;;;;;;;6.60;1.30;;;16.50;98.20;;;;;;5075869;28;20071;-72
2022/12/31 04:22:33;;;;;;;3.42;0.80;;;16.40;98.40;;;;;;5055812;28;20085;-72
2022/12/31 04:25:00;;;;;;;3.80;0.90;;;16.40;98.40;;;;;;5063742;28;20035;-72
2022/12/31 04:27:26;;;;;;;7.80;1.10;;;16.30;98.40;;;;;;5055022;28;20383;-72
2022/12/31 04:29:51;;;;;;;5.63;1.25;;;16.30;98.40;;;;;;5057207;28;20045;-72
2022/12/31 04:32:19;;;;;;;5.97;1.15;;;16.30;98.40;;;;;;5058977;28;20051;-73
2022/12/31 04:34:46;;;;;;;3.78;0.80;;;16.20;98.50;;;;;;5069175;28;20055;-72
2022/12/31 04:37:13;;;;;;;6.65;1.25;;;16.30;98.50;;;;;;5060981;28;20095;-73
2022/12/31 04:39:39;;;;;;;5.93;1.55;;;16.20;98.50;;;;;;5081851;28;20029;-73
2022/12/31 04:42:05;;;;;;;4.63;1.42;;;16.20;98.30;;;;;;5077466;28;20390;-73
2022/12/31 04:44:33;;;;;;;3.72;1.20;;;16.20;98.30;;;;;;5063060;28;20032;-73
2022/12/31 04:46:59;;;;;;;4.22;0.80;;;16.10;98.40;;;;;;5078214;28;20044;-73
2022/12/31 04:49:25;;;;;;;1.85;0.63;;;16.10;98.30;;;;;;5083017;27;20049;-73
2022/12/31 04:51:51;;;;;;;3.08;0.95;;;16.10;98.30;;;;;;5081251;28;20072;-73
2022/12/31 04:54:17;;;;;;;4.13;0.90;;;16.00;98.30;;;;;;5079903;28;20035;-73
2022/12/31 04:56:43;;;;;;;5.43;0.95;;;16.00;98.20;;;;;;5088031;28;20126;-73
2022/12/31 04:59:09;;;;;;;4.47;0.80;;;16.00;98.20;;;;;;5054952;28;20099;-72
2022/12/31 05:01:35;;;;;;;4.32;0.80;;;16.00;98.10;;;;;;5056738;28;20106;-73
2022/12/31 05:04:01;;;;;;;3.00;0.82;;;16.20;97.80;;;;;;5070988;28;20078;-73
2022/12/31 05:06:29;;;;;;;4.18;1.10;;;16.30;97.40;;;;;;5048442;28;20064;-73
2022/12/31 05:08:55;;;;;;;4.80;1.25;;;16.30;97.10;;;;;;5083398;28;20037;-72
2022/12/31 05:11:21;;;;;;;1.77;0.52;;;16.30;97.00;;;;;;5073395;28;20036;-73
2022/12/31 05:13:48;;;;;;;4.78;0.88;;;16.40;96.80;;;;;;5058813;28;20041;-73
2022/12/31 05:16:14;;;;;;;4.57;0.82;;;16.30;96.80;;;;;;5072155;28;20071;-73
2022/12/31 05:18:40;;;;;;;4.28;0.73;;;16.30;96.70;;;;;;5081965;28;20056;-72
2022/12/31 05:21:06;;;;;;;6.30;0.93;;;16.40;96.40;;;;;;5077173;28;20025;-73
2022/12/31 05:23:33;;;;;;;2.95;0.65;;;16.50;96.20;;;;;;5070220;28;20127;-72
2022/12/31 05:26:00;;;;;;;5.20;0.95;;;16.60;96.00;;;;;;5078495;28;20450;-73
2022/12/31 05:28:26;;;;;;;9.13;1.13;;;16.60;96.00;;;;;;5067243;28;20037;-73
2022/12/31 05:30:52;;;;;;;4.18;0.90;;;16.50;96.10;;;;;;5090393;28;20561;-72
2022/12/31 05:33:18;;;;;;;4.07;0.73;;;16.30;96.10;;;;;;5048121;28;20037;-73
2022/12/31 05:35:45;;;;;;;4.38;0.88;;;16.40;96.30;;;;;;5061604;28;20077;-73
2022/12/31 05:38:11;;;;;;;3.88;0.90;;;16.40;96.10;;;;;;5091829;28;20064;-72
2022/12/31 05:40:37;;;;;;;5.68;0.80;;;16.30;96.10;;;;;;5091588;28;20678;-72
2022/12/31 05:43:03;;;;;;;2.92;1.05;;;16.30;96.20;;;;;;5065975;28;20181;-72
2022/12/31 05:45:28;;;;;;;4.40;0.90;;;16.40;96.00;;;;;;5091553;27;20029;-73
2022/12/31 05:47:54;;;;;;;4.25;0.70;;;16.40;95.90;;;;;;5075564;28;20035;-72
2022/12/31 05:50:20;;;;;;;3.97;0.65;;;16.40;95.80;;;;;;5080570;28;20088;-73
2022/12/31 05:52:46;;;;;;;3.08;0.60;;;16.40;95.60;;;;;;5072766;28;20037;-72
2022/12/31 05:55:13;;;;;;;4.75;0.95;;;16.50;95.20;;;;;;5069579;28;20092;-73
2022/12/31 05:57:39;;;;;;;3.95;0.85;;;16.50;95.10;;;;;;5090311;28;20036;-73
2022/12/31 06:00:06;;;;;;;3.40;0.73;;;16.40;95.20;;;;;;5089178;28;20165;-72
2022/12/31 06:02:32;;;;;;;5.40;0.80;;;16.30;95.40;;;;;;5084189;28;20079;-72
2022/12/31 06:04:58;;;;;;;5.05;1.00;;;16.30;95.20;;;;;;5080994;28;20668;-72
2022/12/31 06:07:24;;;;;;;6.78;1.10;;;16.20;95.20;;;;;;5095019;27;20042;-72
2022/12/31 06:09:50;;;;;;;4.35;1.00;;;16.30;95.10;;;;;;5072231;28;20037;-72
2022/12/31 06:12:16;;;;;;;3.03;1.00;;;16.20;95.30;;;;;;5072613;28;20372;-72
2022/12/31 06:14:43;;;;;;;4.63;0.80;;;16.20;95.30;;;;;;5066285;28;20071;-72
2022/12/31 06:17:09;;;;;;;4.40;0.70;;;16.00;95.40;;;;;;5058297;28;20049;-72
2022/12/31 06:19:35;;;;;;;3.83;0.95;;;16.10;95.30;;;;;;5063806;28;20385;-72
2022/12/31 06:22:01;;;;;;;5.95;1.00;;;16.00;95.50;;;;;;5064276;28;20523;-72
2022/12/31 06:24:26;;;;;;;3.95;0.80;;;16.10;95.50;;;;;;5058770;28;20043;-73
2022/12/31 06:26:53;;;;;;;6.63;1.10;;;16.10;95.50;;;;;;5067102;28;20041;-73
2022/12/31 06:29:19;;;;;;;5.07;1.13;;;16.00;95.70;;;;;;5061048;28;20744;-72
2022/12/31 06:31:45;;;;;;;4.05;0.98;;;15.90;95.60;;;;;;5063425;28;20037;-73
2022/12/31 06:34:11;;;;;;;4.60;0.90;;;16.00;95.60;;;;;;5067390;28;20052;-73
2022/12/31 06:36:37;;;;;;;4.03;1.33;;;15.90;95.60;;;;;;5059760;28;20342;-72
2022/12/31 06:39:05;;;;;;;4.65;1.30;;;15.90;95.60;;;;;;5058948;28;20039;-73
2022/12/31 06:41:31;;;;;;;5.50;1.20;;;16.00;95.50;;;;;;5054119;28;20033;-72
2022/12/31 06:43:58;;;;;;;3.80;0.85;;;16.00;95.40;;;;;;5042373;28;20084;-72
2022/12/31 06:46:24;;;;;;;5.22;0.80;;;16.00;95.30;;;;;;5053133;28;20035;-72
2022/12/31 06:48:50;;;;;;;4.75;1.08;;;16.00;95.40;;;;;;5057032;28;20380;-72
2022/12/31 06:51:18;;;;;;;3.60;1.00;;;16.00;95.40;;;;;;5064153;28;20044;-72
2022/12/31 06:53:46;;;;;;;4.28;1.13;;;16.00;95.20;;;;;;5064916;28;20033;-72
2022/12/31 06:56:21;;;;;;;4.72;1.30;;;15.80;95.90;;;;;;5060048;28;20133;-73
2022/12/31 06:58:48;;;;;;;4.50;1.05;;;15.70;95.50;;;;;;5062537;28;20055;-72
2022/12/31 07:01:13;;;;;;;3.75;0.80;;;15.80;95.20;;;;;;5059421;28;20131;-72
2022/12/31 07:03:47;;;;;;;5.53;0.90;;;15.80;95.40;;;;;;5061892;28;20107;-72
2022/12/31 07:06:29;;;;;;;5.43;1.08;;;16.00;95.00;;;;;;5079205;28;20047;-73
2022/12/31 07:09:05;;;;;;;3.67;0.70;;;16.00;95.50;;;;;;5075790;28;20044;-72
2022/12/31 07:12:02;;;;;;;5.25;1.17;;;16.00;94.90;;;;;;5078143;28;20449;-73
2022/12/31 07:14:46;;;;;;;10.13;3.60;;;15.70;95.60;;;;;;5072737;28;20090;-73
2022/12/31 07:17:12;;;;;;;5.00;1.30;;;15.40;96.40;;;;;;5091254;28;20708;-72
2022/12/31 07:19:53;;;;;;;5.32;1.25;;;15.20;96.70;;;;;;5079052;28;20044;-73
2022/12/31 07:22:19;;;;;;;6.18;1.55;;;15.00;97.00;;;;;;5072706;28;20036;-73
2022/12/31 07:24:45;;;;;;;4.18;1.30;;;14.90;97.10;;;;;;5080693;28;20040;-72
2022/12/31 07:27:49;;;;;;;3.95;1.00;;;14.90;97.10;;;;;;5090961;28;20082;-72
2022/12/31 07:30:17;;;;;;;6.78;1.20;;;14.90;97.00;;;;;;5080097;28;20100;-73
2022/12/31 07:33:07;;;;;;;6.30;1.30;;;14.80;97.10;;;;;;5071606;28;20056;-73
2022/12/31 07:36:00;;;;;;;4.22;1.13;;;14.70;97.40;;;;;;5074130;28;20036;-72
2022/12/31 07:38:51;;;;;;;6.07;1.45;;;14.70;98.00;;;;;;5077657;28;20098;-72
2022/12/31 07:41:35;;;;;;;;;;;14.70;97.70;;;;;;5082476;28;20036;-73
2022/12/31 07:44:22;;;;;;;3.40;1.13;;;14.60;97.80;;;;;;5069527;28;19922;-72
2022/12/31 07:47:03;;;;;;;4.93;1.23;;;14.60;97.80;;;;;;5076468;28;20039;-72
2022/12/31 07:49:30;;;;;;;9.88;1.40;;;14.60;97.80;;;;;;5086916;28;20394;-72
2022/12/31 07:51:56;;;;;;;5.07;1.35;;;14.70;97.90;;;;;;5089849;28;20029;-72
2022/12/31 07:54:22;;;;;;;4.90;1.23;;;14.60;97.80;;;;;;5092601;28;20032;-73
2022/12/31 07:56:49;;;;;;;4.65;1.40;;;14.70;97.90;;;;;;5077912;28;20194;-71
2022/12/31 07:59:33;;;;;;;;;;;14.70;97.90;;;;;;5082789;28;20090;-73
2022/12/31 08:02:31;;;;;;;6.00;1.40;;;14.80;97.90;;;;;;5078815;28;19989;-73
2022/12/31 08:05:24;;;;;;;6.15;1.55;;;14.80;97.90;;;;;;5082735;28;20033;-72
2022/12/31 08:07:58;;;;;;;4.65;1.15;;;14.90;97.70;;;;;;5083023;28;20092;-73
2022/12/31 08:10:37;;;;;;;5.05;1.20;;;15.00;97.70;;;;;;5054444;28;20036;-74
2022/12/31 08:13:09;;;;;;;4.47;1.42;;;15.00;97.60;;;;;;5080668;28;20040;-72
2022/12/31 08:15:37;;;;;;;5.82;1.63;;;15.10;97.70;;;;;;5078750;28;20032;-73
2022/12/31 08:18:03;;;;;;;5.57;1.70;;;15.20;97.70;;;;;;5071996;28;20032;-73
2022/12/31 08:20:32;;;;;;;6.38;2.25;;;15.50;97.70;;;;;;5075461;28;20052;-72
2022/12/31 08:23:45;;;;;;;6.10;1.60;;;16.70;96.90;;;;;;5076705;28;20498;-73
2022/12/31 08:26:26;;;;;;;5.88;1.65;;;17.30;95.40;;;;;;5044245;28;20070;-73
2022/12/31 08:29:00;;;;;;;5.18;1.85;;;18.40;95.20;;;;;;5074533;28;20380;-74
2022/12/31 08:31:28;;;;;;;4.55;1.77;;;19.50;93.90;;;;;;5080162;28;20093;-73
2022/12/31 08:34:03;;;;;;;4.90;1.60;;;19.80;93.00;;;;;;5095475;28;20028;-73
2022/12/31 08:36:52;;;;;;;4.57;1.23;;;20.30;91.90;;;;;;5093825;28;20081;-72
2022/12/31 08:39:33;;;;;;;6.20;1.50;;;20.40;91.70;;;;;;5076157;28;20031;-73
2022/12/31 08:42:03;;;;;;;5.20;1.27;;;20.00;91.90;;;;;;5079572;28;20035;-73
2022/12/31 08:44:39;;;;;;;3.80;1.58;;;19.40;91.70;;;;;;5078938;28;20028;-73
2022/12/31 08:47:28;;;;;;;3.60;0.95;;;19.70;91.80;;;;;;5084690;28;20028;-74
2022/12/31 08:49:54;;;;;;;5.70;1.40;;;19.60;91.50;;;;;;5081286;28;20031;-73
2022/12/31 08:52:25;;;;;;;5.00;1.42;;;19.80;91.60;;;;;;5081165;28;20047;-74
2022/12/31 08:54:51;;;;;;;5.03;1.20;;;19.10;92.00;;;;;;5092415;28;20036;-74
2022/12/31 08:57:43;;;;;;;2.78;0.73;;;18.80;91.90;;;;;;5078014;28;20096;-72
2022/12/31 09:00:15;;;;;;;5.03;1.15;;;18.30;92.20;;;;;;5075216;28;20047;-73
2022/12/31 09:02:54;;;;;;;8.10;1.00;;;18.10;92.50;;;;;;5094819;28;20063;-72
2022/12/31 09:05:47;;;;;;;4.10;1.15;;;17.90;92.60;;;;;;5095682;28;20453;-74
2022/12/31 09:08:16;;;;;;;8.43;1.90;;;17.90;92.50;;;;;;5086189;28;20119;-74
2022/12/31 09:10:52;;;;;;;4.10;1.05;;;18.00;92.50;;;;;;5099475;28;20044;-73
2022/12/31 09:13:31;;;;;;;4.38;0.95;;;18.00;92.50;;;;;;5056032;28;20051;-73
2022/12/31 09:16:06;;;;;;;5.25;1.33;;;18.00;92.70;;;;;;5092026;28;20732;-73
2022/12/31 09:18:38;;;;;;;7.07;1.25;;;18.20;92.50;;;;;;5078165;28;20086;-73
2022/12/31 09:21:04;;;;;;;4.63;1.33;;;18.20;92.30;;;;;;5071051;28;20053;-73
2022/12/31 09:23:31;;;;;;;5.05;1.40;;;18.40;92.50;;;;;;5074857;28;20082;-73
2022/12/31 09:26:17;;;;;;;5.25;1.42;;;18.50;92.50;;;;;;5079076;28;20033;-73
2022/12/31 09:28:57;;;;;;;3.28;1.08;;;18.50;92.20;;;;;;5062474;28;20670;-73
2022/12/31 09:31:43;;;;;;;4.90;1.13;;;18.90;92.30;;;;;;5093911;27;20040;-72
2022/12/31 09:34:19;;;;;;;3.60;1.10;;;19.40;92.10;;;;;;5073245;28;20036;-73
2022/12/31 09:36:49;;;;;;;8.82;1.63;;;19.80;91.50;;;;;;5066496;28;20078;-74
2022/12/31 09:39:42;;;;;;;5.35;1.70;;;20.00;91.30;;;;;;5063274;28;20037;-74
2022/12/31 09:42:35;;;;;;;5.38;1.92;;;20.40;91.10;;;;;;5063762;28;20029;-74
2022/12/31 09:45:13;;;;;;;5.78;1.60;;;20.30;91.10;;;;;;5056841;28;20039;-73
2022/12/31 09:48:03;;;;;;;7.00;1.40;;;20.30;90.70;;;;;;5081754;28;20047;-74
2022/12/31 09:51:05;;;;;;;4.05;1.38;;;20.30;90.80;;;;;;5093622;27;20033;-74
2022/12/31 09:54:04;;;;;;;6.72;1.40;;;20.40;90.70;;;;;;5066752;28;20037;-74
2022/12/31 09:56:48;;;;;;;3.75;1.40;;;20.40;90.50;;;;;;5073720;28;20113;-74
2022/12/31 09:59:32;;;;;;;6.07;1.55;;;20.70;90.40;;;;;;5074377;28;20419;-73
2022/12/31 10:02:27;;;;;;;6.20;1.40;;;20.80;90.60;;;;;;5065154;28;20036;-73
2022/12/31 10:05:17;;;;;;;4.70;1.45;;;21.30;90.70;;;;;;5079433;28;20645;-73
2022/12/31 10:08:12;;;;;;;4.80;1.30;;;20.90;91.00;;;;;;5080839;28;20037;-73
2022/12/31 10:10:57;;;;;;;5.45;1.30;;;20.60;91.30;;;;;;5074327;28;20047;-73
2022/12/31 10:13:41;;;;;;;4.45;1.55;;;21.20;91.30;;;;;;5072672;28;20048;-74
2022/12/31 10:16:35;;;;;;;6.43;1.55;;;21.20;91.10;;;;;;5058162;28;20064;-73
2022/12/31 10:19:38;;;;;;;4.57;1.50;;;21.70;91.00;;;;;;5064901;28;20432;-73
2022/12/31 10:22:26;;;;;;;3.75;1.38;;;21.70;90.80;;;;;;5073726;28;20036;-72
2022/12/31 10:25:27;;;;;;;5.75;1.60;;;21.60;90.90;;;;;;5064041;28;20024;-73
2022/12/31 10:28:17;;;;;;;7.28;1.23;;;22.10;90.40;;;;;;5080848;28;20032;-73
2022/12/31 10:30:54;;;;;;;3.35;1.30;;;22.50;90.10;;;;;;5082410;28;20039;-73
2022/12/31 10:33:23;;;;;;;7.25;1.90;;;22.30;90.00;;;;;;5081952;28;20047;-73
2022/12/31 10:35:57;;;;;;;6.60;1.77;;;22.40;90.20;;;;;;5077435;28;20067;-73
2022/12/31 10:38:30;;;;;;;5.97;1.42;;;22.60;90.00;;;;;;5059519;28;20090;-73
2022/12/31 10:41:04;;;;;;;;;;;22.80;89.60;;;;;;5056703;28;20044;-73
2022/12/31 10:43:49;;;;;;;5.28;1.70;;;23.50;89.10;;;;;;5067743;28;20405;-73
2022/12/31 10:46:29;;;;;;;6.43;1.25;;;23.50;88.50;;;;;;5094984;27;20052;-73
2022/12/31 10:49:32;;;;;;;6.82;1.50;;;23.80;86.90;;;;;;5077455;28;20032;-73
2022/12/31 10:52:10;;;;;;;6.93;1.90;;;23.30;87.80;;;;;;5084973;28;20040;-74
2022/12/31 10:55:14;;;;;;;6.82;2.00;;;23.90;87.80;;;;;;5079947;28;20357;-73
2022/12/31 10:57:58;;;;;;;6.70;1.60;;;24.30;86.30;;;;;;5079446;28;20416;-74
2022/12/31 11:00:26;;;;;;;;;;;24.70;86.20;;;;;;5095680;28;20462;-72
2022/12/31 11:03:28;;;;;;;3.83;1.65;;;24.50;83.40;;;;;;5083969;28;19973;-73
2022/12/31 11:06:17;;;;;;;6.57;2.50;;;24.70;83.10;;;;;;5091459;28;20043;-73
2022/12/31 11:09:01;;;;;;;5.03;2.10;;;24.10;86.40;;;;;;5047903;28;20048;-72
2022/12/31 11:11:46;;;;;;;5.50;2.15;;;25.20;86.00;;;;;;5070725;28;20094;-72
2022/12/31 11:14:41;;;;;;;5.85;1.60;;;25.90;83.90;;;;;;5077729;28;20033;-73
2022/12/31 11:17:15;;;;;;;5.93;1.80;;;26.00;82.80;;;;;;5079508;28;20115;-72
2022/12/31 11:20:02;;;;;;;7.72;1.73;;;25.40;83.90;;;;;;5078290;27;20036;-72
2022/12/31 11:22:49;;;;;;;4.93;2.20;;;25.90;83.50;;;;;;5080162;28;20029;-73
2022/12/31 11:25:43;;;;;;;5.95;1.73;;;25.70;84.20;;;;;;5071705;27;20533;-74
2022/12/31 11:28:48;;;;;;;4.38;1.70;;;24.40;82.20;;;;;;5075831;28;20064;-73
2022/12/31 11:31:39;;;;;;;7.10;1.40;;;24.80;81.50;;;;;;5073110;28;20040;-73
2022/12/31 11:34:34;;;;;;;6.75;2.90;;;25.90;80.70;;;;;;5079329;28;20380;-73
2022/12/31 11:37:32;;;;;;;6.35;1.70;;;25.90;80.70;;;;;;5069031;28;20059;-73
2022/12/31 11:40:05;;;;;;;4.07;1.92;;;25.90;80.20;;;;;;5047844;28;20111;-72
2022/12/31 11:42:58;;;;;;;6.30;1.80;;;26.00;80.40;;;;;;5081314;28;20023;-72
2022/12/31 11:45:46;;;;;;;6.30;1.88;;;26.10;80.20;;;;;;5078135;28;20408;-72
2022/12/31 11:48:24;;;;;;;6.63;2.10;;;26.10;80.20;;;;;;5062226;28;20041;-73
2022/12/31 11:51:27;;;;;;;6.03;1.65;;;25.90;80.40;;;;;;5060214;28;20495;-73
2022/12/31 11:54:19;;;;;;;4.90;2.00;;;25.90;80.70;;;;;;5066502;28;20039;-73
2022/12/31 11:57:01;;;;;;;3.95;1.75;;;26.30;80.40;;;;;;5076526;28;20055;-72
2022/12/31 11:59:27;;;;;;;5.75;1.52;;;26.50;79.80;;;;;;5077440;28;20032;-73
2022/12/31 12:02:27;;;;;;;6.78;2.13;;;26.80;79.50;;;;;;5075345;28;20399;-74
2022/12/31 12:04:57;;;;;;;7.85;1.95;;;26.50;79.80;;;;;;5067466;28;20036;-73
2022/12/31 12:07:24;;;;;;;5.47;2.42;;;26.80;80.20;;;;;;5076756;27;20098;-72
2022/12/31 12:09:53;;;;;;;4.78;1.92;;;27.00;80.00;;;;;;5067112;28;20059;-72
2022/12/31 12:12:19;;;;;;;5.07;1.70;;;27.20;79.90;;;;;;5071739;28;20048;-73
2022/12/31 12:14:51;;;;;;;5.03;1.90;;;26.10;79.60;;;;;;5076585;28;20036;-73
2022/12/31 12:17:31;;;;;;;6.03;2.47;;;26.10;80.20;;;;;;5067295;28;20049;-74
2022/12/31 12:20:00;;;;;;;5.55;1.88;;;27.10;80.20;;;;;;5092694;28;20036;-73
2022/12/31 12:22:28;;;;;;;4.82;2.20;;;27.40;79.90;;;;;;5098488;27;20036;-72
2022/12/31 12:25:04;;;;;;;8.77;2.75;;;27.70;79.80;;;;;;5078525;28;20035;-72
2022/12/31 12:27:34;;;;;;;7.28;3.00;;;27.90;79.20;;;;;;5078277;28;20115;-73
2022/12/31 12:30:20;;;;;;;6.60;2.35;;;28.50;78.80;;;;;;5078240;28;20158;-73
2022/12/31 12:32:58;;;;;;;6.82;2.30;;;29.20;78.40;;;;;;5073066;28;20029;-73
2022/12/31 12:35:28;;;;;;;;;;;29.10;78.30;;;;;;5066876;28;20036;-73
2022/12/31 12:37:59;;;;;;;5.93;1.90;;;29.00;77.70;;;;;;5092908;28;19916;-72
2022/12/31 12:40:27;;;;;;;7.75;4.85;;;27.90;77.90;;;;;;5075135;28;20040;-73
2022/12/31 12:42:53;;;;;;;5.47;2.13;;;27.90;78.00;;;;;;5065699;28;20476;-73
2022/12/31 12:45:27;;;;;;;7.25;2.38;;;28.10;78.40;;;;;;5060257;28;20137;-73
2022/12/31 12:47:56;;;;;;;5.30;2.35;;;28.20;78.00;;;;;;5076367;28;20032;-72
2022/12/31 12:50:31;;;;;;;4.65;2.22;;;28.90;77.80;;;;;;5068107;28;20115;-73
2022/12/31 12:53:21;;;;;;;9.30;2.80;;;28.90;77.80;;;;;;5062792;28;20593;-73
2022/12/31 12:56:01;;;;;;;7.75;2.97;;;28.40;77.40;;;;;;5063623;28;20035;-73
2022/12/31 12:58:44;;;;;;;6.55;2.85;;;28.00;78.80;;;;;;5067162;28;20047;-73
2022/12/31 13:01:16;;;;;;;6.45;3.88;;;27.60;79.00;;;;;;5073987;28;20442;-72
2022/12/31 13:03:55;;;;;;;7.57;3.50;;;28.00;80.10;;;;;;5077375;28;20029;-73
2022/12/31 13:06:33;;;;;;;9.13;4.35;;;27.50;80.60;;;;;;5086087;28;20101;-73
2022/12/31 13:09:31;;;;;;;9.93;4.85;;;27.70;81.90;;;;;;5075489;28;20047;-72
2022/12/31 13:12:22;;;;;;;9.85;4.20;;;27.60;82.40;;;;;;5073571;28;20082;-74
2022/12/31 13:14:50;;;;;;;8.30;4.40;;;27.40;83.20;;;;;;5064362;28;20121;-73
2022/12/31 13:17:43;;;;;;;8.57;4.25;;;27.60;84.00;;;;;;5070005;28;20415;-73
2022/12/31 13:20:21;;;;;;;11.60;3.80;;;27.50;83.80;;;;;;5077697;28;20047;-72
2022/12/31 13:22:54;;;;;;;8.45;3.53;;;26.60;84.70;;;;;;5074862;28;20033;-74
2022/12/31 13:25:38;;;;;;;11.75;3.65;;;26.90;85.40;;;;;;5087452;28;20036;-73
2022/12/31 13:28:14;;;;;;;8.15;3.55;;;27.30;85.20;;;;;;5090851;28;20369;-72
2022/12/31 13:30:49;;;;;;;10.05;3.90;;;26.80;85.80;;;;;;5079666;28;20044;-73